Time;durP1;ratioP1;P1;durP2;ratioP2;P2;SDS_P1;SDS_P2;PMS_P1;PMS_P2;Temp;Humidity;BMP_temperature;BMP_pressure;BME280_temperature;BME280_humidity;BME280_pressure;Samples;Min_cycle;Max_cycle;Signal;HPM_P1;HPM_P2
2023/05/03 00:02:10;;;;;;;12.82;11.50;;;13.00;99.90;;;;;;5053701;28;20044;-67
2023/05/03 00:04:37;;;;;;;13.23;11.75;;;12.90;99.90;;;;;;5054502;28;20523;-67
2023/05/03 00:07:03;;;;;;;13.35;11.02;;;12.90;99.90;;;;;;5054588;28;20087;-67
2023/05/03 00:09:29;;;;;;;12.55;11.35;;;12.90;99.90;;;;;;5054112;28;20033;-67
2023/05/03 00:11:55;;;;;;;13.93;11.10;;;13.00;99.90;;;;;;5054622;28;20037;-67
2023/05/03 00:14:20;;;;;;;11.82;10.63;;;13.00;99.90;;;;;;5054287;28;20021;-67
2023/05/03 00:16:46;;;;;;;12.55;11.25;;;13.00;99.90;;;;;;5054597;28;20028;-67
2023/05/03 00:19:11;;;;;;;13.65;11.23;;;13.00;99.90;;;;;;5054343;28;20155;-67
2023/05/03 00:21:37;;;;;;;12.55;10.52;;;13.00;99.90;;;;;;5053809;28;20108;-68
2023/05/03 00:24:04;;;;;;;12.27;10.98;;;13.10;99.90;;;;;;5054400;28;20040;-67
2023/05/03 00:26:29;;;;;;;14.05;10.43;;;13.10;99.90;;;;;;5052744;28;20036;-67
2023/05/03 00:28:55;;;;;;;14.85;9.95;;;13.10;99.90;;;;;;5054424;28;20020;-67
2023/05/03 00:31:21;;;;;;;11.95;10.15;;;13.00;99.90;;;;;;5054230;28;20029;-66
2023/05/03 00:33:46;;;;;;;14.50;10.35;;;13.10;99.90;;;;;;5054398;28;20564;-66
2023/05/03 00:36:13;;;;;;;13.70;11.05;;;13.00;99.90;;;;;;5053932;28;20021;-66
2023/05/03 00:38:40;;;;;;;12.48;10.60;;;13.00;99.90;;;;;;5053483;28;20068;-66
2023/05/03 00:41:08;;;;;;;12.75;10.40;;;13.00;99.90;;;;;;5054186;28;20017;-67
2023/05/03 00:43:34;;;;;;;12.63;11.30;;;13.00;99.90;;;;;;5053612;28;20064;-67
2023/05/03 00:46:02;;;;;;;16.05;11.52;;;13.00;99.90;;;;;;5054179;28;20075;-67
2023/05/03 00:48:28;;;;;;;11.77;10.50;;;13.00;99.90;;;;;;5053563;28;20025;-67
2023/05/03 00:50:59;;;;;;;13.05;10.65;;;13.00;99.90;;;;;;5053981;28;20017;-67
2023/05/03 00:53:25;;;;;;;13.70;11.65;;;13.00;99.90;;;;;;5053600;28;20028;-68
2023/05/03 00:55:52;;;;;;;12.73;11.25;;;13.00;99.90;;;;;;5053955;28;20462;-68
2023/05/03 00:58:18;;;;;;;12.88;11.57;;;13.00;99.90;;;;;;5053326;28;20135;-68
2023/05/03 01:00:44;;;;;;;14.45;10.80;;;13.00;99.90;;;;;;5053764;28;20112;-67
2023/05/03 01:03:10;;;;;;;15.45;12.05;;;13.00;99.90;;;;;;5053807;28;20448;-68
2023/05/03 01:06:05;;;;;;;13.02;11.57;;;13.00;99.90;;;;;;5051994;28;20078;-67
2023/05/03 01:08:39;;;;;;;12.30;10.65;;;13.00;99.90;;;;;;5051260;28;20064;-68
2023/05/03 01:11:34;;;;;;;14.25;10.57;;;13.00;99.90;;;;;;5053766;28;20025;-67
2023/05/03 01:14:09;;;;;;;11.98;10.25;;;12.90;99.90;;;;;;5050190;28;20500;-68
2023/05/03 01:16:48;;;;;;;13.05;11.65;;;12.90;99.90;;;;;;5053131;28;20033;-68
2023/05/03 01:19:33;;;;;;;12.50;11.05;;;12.90;99.90;;;;;;5053568;28;20025;-68
2023/05/03 01:22:09;;;;;;;14.18;11.43;;;12.90;99.90;;;;;;5053569;28;20033;-67
2023/05/03 01:24:37;;;;;;;12.80;11.43;;;12.90;99.90;;;;;;5052944;28;20485;-67
2023/05/03 01:27:04;;;;;;;12.73;11.43;;;12.90;99.90;;;;;;5053289;28;20025;-66
2023/05/03 01:29:29;;;;;;;13.70;11.88;;;12.90;99.90;;;;;;5052707;28;20377;-66
2023/05/03 01:32:00;;;;;;;16.42;11.52;;;12.90;99.90;;;;;;5053186;28;20039;-67
2023/05/03 01:34:40;;;;;;;13.88;11.35;;;12.80;99.90;;;;;;5052942;28;20033;-67
2023/05/03 01:37:09;;;;;;;15.90;11.33;;;12.80;99.90;;;;;;5053368;28;20120;-67
2023/05/03 01:39:47;;;;;;;12.63;11.32;;;12.80;99.90;;;;;;5052588;28;20476;-67
2023/05/03 01:42:14;;;;;;;13.05;11.30;;;12.80;99.90;;;;;;5053069;28;20466;-67
2023/05/03 01:44:41;;;;;;;13.63;11.57;;;12.80;99.90;;;;;;5052389;28;20450;-67
2023/05/03 01:47:07;;;;;;;17.77;11.40;;;12.80;99.90;;;;;;5053096;28;20031;-67
2023/05/03 01:49:34;;;;;;;13.48;10.40;;;12.80;99.90;;;;;;5052017;28;20029;-66
2023/05/03 01:52:00;;;;;;;14.70;10.73;;;12.80;99.90;;;;;;5052730;28;20118;-67
2023/05/03 01:54:25;;;;;;;11.38;9.88;;;12.70;99.90;;;;;;5052632;28;20063;-68
2023/05/03 01:56:51;;;;;;;12.95;10.38;;;12.80;99.90;;;;;;5052847;28;20029;-68
2023/05/03 01:59:17;;;;;;;12.63;10.23;;;12.80;99.90;;;;;;5052917;28;20033;-67
2023/05/03 02:01:42;;;;;;;12.20;9.60;;;12.80;99.90;;;;;;5052164;28;20440;-67
2023/05/03 02:04:08;;;;;;;11.65;10.20;;;12.80;99.90;;;;;;5053091;28;20075;-66
2023/05/03 02:06:34;;;;;;;12.10;9.98;;;12.70;99.90;;;;;;5052646;28;20112;-68
2023/05/03 02:08:59;;;;;;;11.88;9.90;;;12.70;99.90;;;;;;5052715;28;20115;-68
2023/05/03 02:11:25;;;;;;;10.40;9.38;;;12.80;99.90;;;;;;5051967;28;20052;-67
2023/05/03 02:13:50;;;;;;;10.85;9.20;;;12.70;99.90;;;;;;5052684;28;20021;-67
2023/05/03 02:16:19;;;;;;;13.02;9.77;;;12.70;99.90;;;;;;5052366;28;20466;-67
2023/05/03 02:18:45;;;;;;;12.98;9.70;;;12.70;99.90;;;;;;5052163;28;20033;-67
2023/05/03 02:21:12;;;;;;;12.20;10.00;;;12.80;99.90;;;;;;5052612;28;20029;-67
2023/05/03 02:23:37;;;;;;;15.35;9.57;;;12.80;99.90;;;;;;5052033;28;20511;-67
2023/05/03 02:26:03;;;;;;;10.80;9.45;;;12.70;99.90;;;;;;5056280;28;20037;-67
2023/05/03 02:28:29;;;;;;;10.75;9.48;;;12.70;99.90;;;;;;5056367;28;20108;-68
2023/05/03 02:30:55;;;;;;;9.68;8.75;;;12.70;99.90;;;;;;5056367;28;20055;-67
2023/05/03 02:33:21;;;;;;;10.60;9.02;;;12.70;99.90;;;;;;5056599;28;20378;-66
2023/05/03 02:35:47;;;;;;;10.88;9.00;;;12.70;99.90;;;;;;5056110;28;20488;-69
2023/05/03 02:38:12;;;;;;;11.77;9.32;;;12.70;99.90;;;;;;5056445;28;20374;-66
2023/05/03 02:40:38;;;;;;;10.20;8.70;;;12.70;99.90;;;;;;5056354;28;20493;-66
2023/05/03 02:43:04;;;;;;;10.30;9.02;;;12.70;99.90;;;;;;5055908;28;20040;-68
2023/05/03 02:45:30;;;;;;;12.75;9.50;;;12.70;99.90;;;;;;5055505;28;20048;-66
2023/05/03 02:47:55;;;;;;;10.45;9.27;;;12.70;99.90;;;;;;5056208;28;20116;-67
2023/05/03 02:50:21;;;;;;;12.13;9.10;;;12.60;99.90;;;;;;5056201;28;20024;-66
2023/05/03 02:52:47;;;;;;;11.50;9.40;;;12.70;99.90;;;;;;5055361;28;20455;-68
2023/05/03 02:55:12;;;;;;;10.30;9.20;;;12.60;99.90;;;;;;5056216;28;20091;-67
2023/05/03 02:57:38;;;;;;;10.63;8.98;;;12.70;99.90;;;;;;5055670;28;20021;-68
2023/05/03 03:00:05;;;;;;;9.80;8.75;;;12.70;99.90;;;;;;5056195;28;20109;-67
2023/05/03 03:02:30;;;;;;;11.88;8.90;;;12.60;99.90;;;;;;5055485;28;20040;-68
2023/05/03 03:04:56;;;;;;;10.13;8.68;;;12.60;99.90;;;;;;5055806;28;20021;-68
2023/05/03 03:07:22;;;;;;;10.35;8.90;;;12.70;99.90;;;;;;5055966;28;20060;-67
2023/05/03 03:09:47;;;;;;;12.02;9.45;;;12.70;99.90;;;;;;5055337;28;20560;-68
2023/05/03 03:12:13;;;;;;;10.50;8.35;;;12.70;99.90;;;;;;5055978;28;20047;-68
2023/05/03 03:14:40;;;;;;;11.60;8.65;;;12.70;99.90;;;;;;5055459;28;20025;-68
2023/05/03 03:17:08;;;;;;;12.60;9.43;;;12.70;99.90;;;;;;5055685;28;20036;-68
2023/05/03 03:19:34;;;;;;;10.10;8.57;;;12.70;99.90;;;;;;5055404;28;20025;-68
2023/05/03 03:22:00;;;;;;;12.40;8.07;;;12.70;99.90;;;;;;5055625;28;20111;-67
2023/05/03 03:24:26;;;;;;;9.65;7.72;;;12.70;99.90;;;;;;5054389;28;20028;-67
2023/05/03 03:26:51;;;;;;;9.35;7.72;;;12.70;99.90;;;;;;5055281;28;20025;-67
2023/05/03 03:29:17;;;;;;;12.25;8.82;;;12.70;99.90;;;;;;5055609;28;20382;-67
2023/05/03 03:31:43;;;;;;;9.70;8.65;;;12.70;99.90;;;;;;5055083;28;20025;-67
2023/05/03 03:34:13;;;;;;;12.43;8.48;;;12.70;99.90;;;;;;5055274;28;20461;-67
2023/05/03 03:36:38;;;;;;;12.25;8.00;;;12.70;99.90;;;;;;5053635;28;20114;-68
2023/05/03 03:39:04;;;;;;;9.80;7.63;;;12.70;99.90;;;;;;5055446;28;20350;-67
2023/05/03 03:41:31;;;;;;;10.88;8.57;;;12.70;99.90;;;;;;5055260;28;20021;-68
2023/05/03 03:43:57;;;;;;;10.48;8.68;;;12.70;99.90;;;;;;5054632;28;20033;-68
2023/05/03 03:46:23;;;;;;;12.13;8.40;;;12.70;99.90;;;;;;5055541;28;20029;-68
2023/05/03 03:48:49;;;;;;;9.85;8.02;;;12.70;99.90;;;;;;5054726;28;20033;-68
2023/05/03 03:51:15;;;;;;;9.63;8.25;;;12.80;99.90;;;;;;5055119;28;20025;-67
2023/05/03 03:53:40;;;;;;;12.48;8.95;;;12.70;99.90;;;;;;5054743;28;20455;-67
2023/05/03 03:56:06;;;;;;;10.93;9.23;;;12.80;99.90;;;;;;5055007;28;20377;-66
2023/05/03 03:58:32;;;;;;;12.25;9.57;;;12.80;99.90;;;;;;5054494;28;20033;-71
2023/05/03 04:00:59;;;;;;;11.05;9.20;;;12.70;99.90;;;;;;5054974;28;20040;-67
2023/05/03 04:03:25;;;;;;;10.52;9.43;;;12.70;99.90;;;;;;5054796;28;20045;-67
2023/05/03 04:05:51;;;;;;;12.48;9.18;;;12.70;99.90;;;;;;5054511;28;20074;-67
2023/05/03 04:08:17;;;;;;;11.63;8.75;;;12.70;99.90;;;;;;5054892;28;20037;-66
2023/05/03 04:10:43;;;;;;;12.98;10.18;;;12.70;99.90;;;;;;5054437;28;20025;-67
2023/05/03 04:13:08;;;;;;;14.93;10.70;;;12.70;99.90;;;;;;5054667;28;20170;-66
2023/05/03 04:15:34;;;;;;;13.43;10.77;;;12.70;99.90;;;;;;5054032;28;20107;-66
2023/05/03 04:18:00;;;;;;;13.32;10.63;;;12.70;99.90;;;;;;5054639;28;20033;-67
2023/05/03 04:20:25;;;;;;;12.23;10.38;;;12.80;99.90;;;;;;5054354;28;20029;-67
2023/05/03 04:22:51;;;;;;;13.10;10.00;;;12.70;99.90;;;;;;5053859;28;20033;-66
2023/05/03 04:25:17;;;;;;;13.77;11.50;;;12.70;99.90;;;;;;5054433;28;20029;-67
2023/05/03 04:27:44;;;;;;;14.73;11.38;;;12.80;99.90;;;;;;5054077;28;20025;-67
2023/05/03 04:30:12;;;;;;;14.23;11.35;;;12.80;99.90;;;;;;5054573;28;20033;-67
2023/05/03 04:32:39;;;;;;;14.68;11.85;;;12.80;99.90;;;;;;5053748;28;20470;-68
2023/05/03 04:35:08;;;;;;;15.93;11.32;;;12.80;99.90;;;;;;5054349;28;20025;-68
2023/05/03 04:37:34;;;;;;;12.80;11.02;;;12.80;99.90;;;;;;5054386;28;20064;-68
2023/05/03 04:40:00;;;;;;;14.02;11.73;;;12.90;99.90;;;;;;5054326;28;20053;-67
2023/05/03 04:42:26;;;;;;;14.60;12.38;;;12.90;99.90;;;;;;5053888;28;20072;-68
2023/05/03 04:44:51;;;;;;;14.50;11.88;;;12.90;99.90;;;;;;5053603;28;20049;-68
2023/05/03 04:47:18;;;;;;;13.68;11.20;;;13.00;99.90;;;;;;5053924;28;20036;-67
2023/05/03 04:49:45;;;;;;;13.50;10.98;;;13.00;99.90;;;;;;5053537;28;20025;-68
2023/05/03 04:52:11;;;;;;;13.93;10.35;;;13.00;99.90;;;;;;5052788;28;20060;-67
2023/05/03 04:54:36;;;;;;;12.68;10.77;;;13.00;99.90;;;;;;5053296;28;20036;-68
2023/05/03 04:57:02;;;;;;;11.23;10.02;;;13.10;99.90;;;;;;5052560;28;20064;-68
2023/05/03 04:59:28;;;;;;;12.88;10.55;;;13.10;99.90;;;;;;5052578;28;20029;-67
2023/05/03 05:01:53;;;;;;;12.13;9.73;;;13.10;99.90;;;;;;5052862;28;20036;-67
2023/05/03 05:04:19;;;;;;;10.57;8.70;;;13.20;99.90;;;;;;5053582;28;20033;-67
2023/05/03 05:06:45;;;;;;;15.05;9.82;;;13.20;99.90;;;;;;5053039;28;20034;-67
2023/05/03 05:09:23;;;;;;;12.75;9.55;;;13.20;99.90;;;;;;5053538;28;20021;-67
2023/05/03 05:11:49;;;;;;;10.55;9.20;;;13.30;99.90;;;;;;5053074;28;20029;-68
2023/05/03 05:14:15;;;;;;;12.13;9.75;;;13.40;99.90;;;;;;5053573;28;20124;-67
2023/05/03 05:16:40;;;;;;;10.93;8.80;;;13.50;99.90;;;;;;5051875;28;20107;-68
2023/05/03 05:19:07;;;;;;;10.15;9.00;;;13.60;99.90;;;;;;5053380;28;20079;-68
2023/05/03 05:21:32;;;;;;;13.80;8.98;;;13.80;99.90;;;;;;5053274;28;20028;-68
2023/05/03 05:23:58;;;;;;;11.05;8.80;;;13.90;99.90;;;;;;5051613;28;20385;-67
2023/05/03 05:26:26;;;;;;;10.20;8.65;;;14.10;99.90;;;;;;5052850;28;20029;-67
2023/05/03 05:28:51;;;;;;;12.10;8.30;;;14.20;99.90;;;;;;5052522;28;20432;-68
2023/05/03 05:31:17;;;;;;;11.45;8.98;;;14.40;99.90;;;;;;5053185;28;20028;-68
2023/05/03 05:33:43;;;;;;;12.30;9.27;;;14.50;99.90;;;;;;5052743;28;20377;-67
2023/05/03 05:36:09;;;;;;;14.88;8.57;;;14.70;99.90;;;;;;5053211;28;20029;-66
2023/05/03 05:38:35;;;;;;;11.50;8.27;;;14.90;99.90;;;;;;5053138;28;20147;-68
2023/05/03 05:41:01;;;;;;;11.57;8.52;;;15.10;99.90;;;;;;5052639;28;20025;-66
2023/05/03 05:43:26;;;;;;;10.48;8.65;;;15.40;99.90;;;;;;5052717;28;20040;-68
2023/05/03 05:45:52;;;;;;;11.20;7.72;;;15.70;99.90;;;;;;5052298;28;20048;-68
2023/05/03 05:48:18;;;;;;;12.02;8.88;;;16.00;99.90;;;;;;5053191;28;20056;-68
2023/05/03 05:50:44;;;;;;;14.27;8.60;;;16.10;98.50;;;;;;5052438;28;20057;-68
2023/05/03 05:53:10;;;;;;;11.40;8.63;;;16.30;98.40;;;;;;5052940;28;20102;-67
2023/05/03 05:55:36;;;;;;;13.38;8.82;;;16.40;97.40;;;;;;5052774;28;20506;-68
2023/05/03 05:58:01;;;;;;;10.55;8.18;;;16.60;96.50;;;;;;5052410;28;20033;-68
2023/05/03 06:00:27;;;;;;;11.20;8.30;;;16.50;95.50;;;;;;5051904;28;20021;-68
2023/05/03 06:02:53;;;;;;;9.25;8.20;;;16.60;96.30;;;;;;5052286;28;20040;-67
2023/05/03 06:05:19;;;;;;;9.88;8.23;;;16.60;95.60;;;;;;5052729;28;20025;-68
2023/05/03 06:07:45;;;;;;;11.48;7.82;;;16.60;94.90;;;;;;5052209;28;20116;-67
2023/05/03 06:10:11;;;;;;;10.55;7.80;;;16.40;94.80;;;;;;5052493;28;20147;-67
2023/05/03 06:12:36;;;;;;;13.98;8.68;;;16.40;95.10;;;;;;5052483;28;20092;-67
2023/05/03 06:15:03;;;;;;;9.75;8.20;;;16.30;95.00;;;;;;5050876;28;20044;-67
2023/05/03 06:17:29;;;;;;;9.05;7.07;;;16.30;94.90;;;;;;5052501;28;20028;-67
2023/05/03 06:19:55;;;;;;;11.38;8.13;;;16.30;94.50;;;;;;5051969;28;20389;-67
2023/05/03 06:22:20;;;;;;;11.73;8.05;;;16.10;94.40;;;;;;5052423;28;20040;-67
2023/05/03 06:24:46;;;;;;;15.48;8.00;;;16.10;94.50;;;;;;5052328;28;20025;-68
2023/05/03 06:27:12;;;;;;;9.43;7.32;;;16.10;95.00;;;;;;5052450;28;20029;-68
2023/05/03 06:29:37;;;;;;;14.02;7.93;;;16.20;95.40;;;;;;5052652;28;20037;-68
2023/05/03 06:32:03;;;;;;;10.35;7.93;;;16.20;94.70;;;;;;5051644;28;20033;-68
2023/05/03 06:34:29;;;;;;;14.45;8.13;;;16.20;94.10;;;;;;5051945;28;20033;-67
2023/05/03 06:36:54;;;;;;;10.18;7.90;;;16.20;94.90;;;;;;5052303;28;20056;-68
2023/05/03 06:39:20;;;;;;;8.90;7.22;;;16.30;94.60;;;;;;5052301;28;20064;-67
2023/05/03 06:41:46;;;;;;;10.57;7.95;;;16.40;94.50;;;;;;5052102;28;20028;-68
2023/05/03 06:44:11;;;;;;;11.90;8.35;;;16.40;94.80;;;;;;5052027;28;20037;-68
2023/05/03 06:46:37;;;;;;;11.98;8.75;;;16.60;95.20;;;;;;5052221;28;20025;-68
2023/05/03 06:49:03;;;;;;;11.75;8.15;;;16.80;94.40;;;;;;5051783;28;20029;-68
2023/05/03 06:51:31;;;;;;;11.68;9.02;;;17.00;93.20;;;;;;5051826;28;20442;-68
2023/05/03 06:54:05;;;;;;;10.95;9.07;;;17.00;93.10;;;;;;5051705;28;20040;-68
2023/05/03 06:56:35;;;;;;;9.55;8.50;;;17.00;92.90;;;;;;5051806;28;20076;-67
2023/05/03 06:59:02;;;;;;;12.55;8.65;;;17.00;92.40;;;;;;5051524;28;20063;-67
2023/05/03 07:01:28;;;;;;;10.20;8.80;;;16.80;92.10;;;;;;5052043;28;20025;-67
2023/05/03 07:03:54;;;;;;;10.30;8.88;;;16.60;92.10;;;;;;5051590;28;20037;-68
2023/05/03 07:06:22;;;;;;;9.98;8.60;;;16.40;93.40;;;;;;5052018;28;20029;-68
2023/05/03 07:08:52;;;;;;;11.98;8.48;;;16.30;93.20;;;;;;5051769;28;20017;-68
2023/05/03 07:11:23;;;;;;;10.98;8.45;;;16.20;93.40;;;;;;5053429;28;20025;-67
2023/05/03 07:13:50;;;;;;;13.57;9.80;;;16.10;94.20;;;;;;5053571;28;20036;-68
2023/05/03 07:16:16;;;;;;;11.52;9.40;;;16.00;94.10;;;;;;5055779;28;20037;-66
2023/05/03 07:18:42;;;;;;;9.23;8.23;;;15.90;94.40;;;;;;5054224;28;20101;-67
2023/05/03 07:21:07;;;;;;;11.82;9.18;;;16.00;94.90;;;;;;5054975;28;20406;-66
2023/05/03 07:23:35;;;;;;;11.02;9.43;;;16.00;95.00;;;;;;5055735;28;20056;-67
2023/05/03 07:26:00;;;;;;;13.32;8.60;;;16.10;95.00;;;;;;5055178;28;20029;-68
2023/05/03 07:28:26;;;;;;;12.23;9.63;;;16.00;95.00;;;;;;5055569;28;20032;-68
2023/05/03 07:30:52;;;;;;;12.77;8.43;;;15.90;94.60;;;;;;5055328;28;20519;-68
2023/05/03 07:33:17;;;;;;;10.02;8.80;;;15.90;94.90;;;;;;5055748;28;20041;-68
2023/05/03 07:35:46;;;;;;;10.68;8.80;;;16.00;94.70;;;;;;5054996;28;20021;-68
2023/05/03 07:38:12;;;;;;;12.25;8.43;;;16.50;95.50;;;;;;5054909;28;20080;-67
2023/05/03 07:40:38;;;;;;;12.13;8.15;;;17.20;93.80;;;;;;5055400;28;20029;-67
2023/05/03 07:43:04;;;;;;;10.98;8.23;;;17.10;91.70;;;;;;5054769;28;20536;-68
2023/05/03 07:45:29;;;;;;;12.00;8.70;;;17.00;91.50;;;;;;5054925;28;20052;-68
2023/05/03 07:47:55;;;;;;;9.27;8.25;;;17.20;91.50;;;;;;5054752;28;20035;-68
2023/05/03 07:50:22;;;;;;;11.82;7.78;;;17.90;90.20;;;;;;5054879;28;20032;-68
2023/05/03 07:52:50;;;;;;;10.45;7.65;;;18.10;89.10;;;;;;5055217;28;20035;-67
2023/05/03 07:55:17;;;;;;;9.40;7.57;;;18.20;89.10;;;;;;5055113;28;20108;-67
2023/05/03 07:57:44;;;;;;;21.88;9.40;;;18.30;88.00;;;;;;5055122;28;20029;-68
2023/05/03 08:00:11;;;;;;;14.75;8.68;;;18.10;85.90;;;;;;5054435;28;20028;-68
2023/05/03 08:02:37;;;;;;;13.10;7.75;;;17.90;85.60;;;;;;5054874;28;20035;-67
2023/05/03 08:05:04;;;;;;;19.05;9.57;;;17.60;85.80;;;;;;5053614;28;20033;-69
2023/05/03 08:07:30;;;;;;;23.08;9.52;;;17.40;85.20;;;;;;5054250;28;20056;-68
2023/05/03 08:09:57;;;;;;;13.10;7.88;;;17.20;86.90;;;;;;5054258;28;20025;-68
2023/05/03 08:12:26;;;;;;;10.35;9.15;;;17.00;87.70;;;;;;5054838;28;20025;-68
2023/05/03 08:14:53;;;;;;;10.50;8.05;;;16.90;90.00;;;;;;5054314;28;20405;-70
2023/05/03 08:17:19;;;;;;;10.95;8.60;;;16.90;90.20;;;;;;5054335;28;20116;-67
2023/05/03 08:19:46;;;;;;;9.50;8.18;;;16.80;90.40;;;;;;5054347;28;20116;-67
2023/05/03 08:22:11;;;;;;;11.30;8.40;;;16.70;90.60;;;;;;5053216;28;20521;-67
2023/05/03 08:24:41;;;;;;;11.10;8.77;;;16.90;90.50;;;;;;5054535;28;20036;-67
2023/05/03 08:27:08;;;;;;;10.82;8.32;;;17.20;89.10;;;;;;5053834;28;20500;-68
2023/05/03 08:29:37;;;;;;;10.90;8.02;;;17.30;90.10;;;;;;5054537;28;20027;-67
2023/05/03 08:32:03;;;;;;;13.73;8.88;;;17.30;87.80;;;;;;5053751;28;20028;-68
2023/05/03 08:34:30;;;;;;;17.52;8.82;;;17.70;89.30;;;;;;5053998;28;20025;-68
2023/05/03 08:36:56;;;;;;;18.20;9.18;;;17.90;85.40;;;;;;5053745;28;20120;-68
2023/05/03 08:39:25;;;;;;;11.23;8.88;;;18.10;86.20;;;;;;5052913;28;20115;-67
2023/05/03 08:41:53;;;;;;;13.45;8.55;;;18.10;82.90;;;;;;5053982;28;20048;-68
2023/05/03 08:44:22;;;;;;;8.95;8.05;;;18.00;83.90;;;;;;5053910;28;20445;-68
2023/05/03 08:46:50;;;;;;;9.13;8.18;;;18.00;85.20;;;;;;5054074;28;20491;-67
2023/05/03 08:49:20;;;;;;;9.00;7.85;;;17.80;84.40;;;;;;5053617;28;20372;-67
2023/05/03 08:51:48;;;;;;;11.85;8.60;;;18.20;84.80;;;;;;5053960;28;20059;-68
2023/05/03 08:54:15;;;;;;;11.27;8.82;;;18.20;82.70;;;;;;5053446;28;20036;-68
2023/05/03 08:56:45;;;;;;;13.02;9.10;;;18.10;82.40;;;;;;5053784;28;20029;-68
2023/05/03 08:59:11;;;;;;;10.68;7.82;;;18.10;82.50;;;;;;5053427;28;20092;-68
2023/05/03 09:01:41;;;;;;;10.68;7.80;;;18.40;82.90;;;;;;5053655;28;20115;-67
2023/05/03 09:04:08;;;;;;;9.38;7.88;;;18.30;82.10;;;;;;5053387;28;20484;-67
2023/05/03 09:06:35;;;;;;;12.35;8.50;;;18.20;81.40;;;;;;5053491;28;20116;-68
2023/05/03 09:09:06;;;;;;;15.73;8.80;;;18.30;80.90;;;;;;5053227;28;20021;-67
2023/05/03 09:11:33;;;;;;;10.60;8.13;;;18.10;80.70;;;;;;5053538;28;20029;-67
2023/05/03 09:14:11;;;;;;;10.63;7.85;;;18.00;81.00;;;;;;5052551;28;20032;-69
2023/05/03 09:16:39;;;;;;;11.02;8.90;;;18.00;80.70;;;;;;5053430;28;20021;-67
2023/05/03 09:19:08;;;;;;;9.68;8.40;;;17.90;81.40;;;;;;5052978;28;20351;-68
2023/05/03 09:21:35;;;;;;;10.02;8.52;;;17.90;82.00;;;;;;5053409;28;20021;-69
2023/05/03 09:24:04;;;;;;;12.05;8.63;;;17.90;80.80;;;;;;5052867;28;20037;-68
2023/05/03 09:26:32;;;;;;;12.55;8.43;;;17.80;80.90;;;;;;5053166;28;20032;-67
2023/05/03 09:29:02;;;;;;;10.48;8.63;;;17.70;81.50;;;;;;5052880;28;20031;-67
2023/05/03 09:31:29;;;;;;;10.52;8.15;;;17.70;81.90;;;;;;5053239;28;20029;-67
2023/05/03 09:33:55;;;;;;;9.05;7.50;;;17.60;82.10;;;;;;5052970;28;20063;-67
2023/05/03 09:36:21;;;;;;;11.38;7.93;;;17.60;82.90;;;;;;5052629;28;20029;-67
2023/05/03 09:38:47;;;;;;;7.30;6.45;;;17.60;83.00;;;;;;5052990;28;20024;-67
2023/05/03 09:41:13;;;;;;;8.35;7.47;;;17.70;83.10;;;;;;5052336;28;20102;-67
2023/05/03 09:43:50;;;;;;;10.65;6.68;;;17.90;81.60;;;;;;5052621;28;20029;-67
2023/05/03 09:46:16;;;;;;;9.27;7.10;;;18.00;80.10;;;;;;5052523;28;20516;-67
2023/05/03 09:48:42;;;;;;;10.15;7.38;;;18.20;78.70;;;;;;5052870;28;20029;-68
2023/05/03 09:51:10;;;;;;;8.57;6.97;;;18.30;78.60;;;;;;5052461;28;20025;-67
2023/05/03 09:53:37;;;;;;;9.48;6.65;;;18.30;77.70;;;;;;5052779;28;20029;-68
2023/05/03 09:56:07;;;;;;;9.45;7.00;;;18.30;77.00;;;;;;5052076;28;20104;-68
2023/05/03 09:58:35;;;;;;;9.82;6.75;;;18.30;77.10;;;;;;5052689;28;20033;-68
2023/05/03 10:01:01;;;;;;;9.65;6.80;;;18.30;76.10;;;;;;5052324;28;20033;-68
2023/05/03 10:03:40;;;;;;;10.98;7.18;;;18.40;77.30;;;;;;5052627;28;20033;-67
2023/05/03 10:06:23;;;;;;;9.65;7.25;;;18.30;76.30;;;;;;5052283;28;20083;-67
2023/05/03 10:08:53;;;;;;;9.02;7.47;;;18.30;76.60;;;;;;5052669;28;20029;-68
2023/05/03 10:11:20;;;;;;;9.20;7.13;;;18.30;76.70;;;;;;5052053;28;20350;-66
2023/05/03 10:13:46;;;;;;;8.07;6.45;;;18.40;77.80;;;;;;5052261;28;20033;-67
2023/05/03 10:16:19;;;;;;;9.23;7.50;;;18.50;77.80;;;;;;5051846;28;20040;-67
2023/05/03 10:18:55;;;;;;;8.05;6.15;;;18.60;77.60;;;;;;5050995;28;20047;-68
2023/05/03 10:21:32;;;;;;;9.00;6.32;;;18.70;75.20;;;;;;5052183;28;20025;-67
2023/05/03 10:24:24;;;;;;;9.48;6.32;;;18.70;74.10;;;;;;5052161;28;20025;-67
2023/05/03 10:26:50;;;;;;;9.75;6.05;;;18.70;73.40;;;;;;5050484;28;20033;-67
2023/05/03 10:29:44;;;;;;;7.50;6.38;;;18.90;75.70;;;;;;5051986;28;20036;-68
2023/05/03 10:32:31;;;;;;;8.00;6.13;;;19.10;72.20;;;;;;5051861;28;20033;-68
2023/05/03 10:35:05;;;;;;;8.18;6.05;;;19.20;72.50;;;;;;5052350;28;20029;-68
2023/05/03 10:37:33;;;;;;;11.80;5.55;;;19.10;70.70;;;;;;5052301;28;20024;-66
2023/05/03 10:40:10;;;;;;;5.43;4.47;;;19.10;70.40;;;;;;5052156;28;20424;-67
2023/05/03 10:42:37;;;;;;;6.45;5.50;;;19.10;68.10;;;;;;5052059;28;20055;-67
2023/05/03 10:45:03;;;;;;;7.85;5.50;;;19.10;69.40;;;;;;5051796;28;20049;-68
2023/05/03 10:47:29;;;;;;;7.53;5.18;;;19.20;70.30;;;;;;5056319;28;20025;-67
2023/05/03 10:50:13;;;;;;;9.50;4.85;;;19.30;70.20;;;;;;5055744;28;20429;-67
2023/05/03 10:52:39;;;;;;;8.65;5.07;;;19.50;68.10;;;;;;5056054;28;20388;-67
2023/05/03 10:55:23;;;;;;;9.75;5.60;;;19.50;68.00;;;;;;5055435;28;20025;-67
2023/05/03 10:57:52;;;;;;;7.47;5.20;;;19.60;67.40;;;;;;5055652;28;20032;-67
2023/05/03 11:00:23;;;;;;;7.00;4.63;;;19.50;65.90;;;;;;5055496;28;20120;-67
2023/05/03 11:03:25;;;;;;;6.28;5.20;;;19.40;65.90;;;;;;5055792;28;20040;-67
2023/05/03 11:05:52;;;;;;;10.93;5.50;;;19.30;67.10;;;;;;5055896;28;20029;-67
2023/05/03 11:08:24;;;;;;;9.65;5.15;;;19.20;67.20;;;;;;5055002;28;20025;-67
2023/05/03 11:10:58;;;;;;;8.23;5.57;;;19.20;66.70;;;;;;5055314;28;20347;-67
2023/05/03 11:13:24;;;;;;;8.23;5.35;;;19.20;67.20;;;;;;5055261;28;20079;-67
2023/05/03 11:15:52;;;;;;;6.60;5.53;;;19.30;67.50;;;;;;5055422;28;20029;-68
2023/05/03 11:18:17;;;;;;;5.50;4.90;;;19.40;67.20;;;;;;5055149;28;20033;-68
2023/05/03 11:20:43;;;;;;;6.55;4.97;;;19.40;66.70;;;;;;5055456;28;20462;-67
2023/05/03 11:23:10;;;;;;;8.38;5.68;;;19.30;66.80;;;;;;5054812;28;20037;-68
2023/05/03 11:25:37;;;;;;;9.48;5.57;;;19.20;66.90;;;;;;5055433;28;20025;-68
2023/05/03 11:28:03;;;;;;;8.95;5.43;;;19.30;68.20;;;;;;5055286;28;20143;-68
2023/05/03 11:30:32;;;;;;;8.18;5.65;;;19.20;68.20;;;;;;5054054;28;20326;-68
2023/05/03 11:32:59;;;;;;;7.72;5.72;;;19.10;68.60;;;;;;5055404;28;20115;-67
2023/05/03 11:35:25;;;;;;;9.65;6.57;;;19.10;68.10;;;;;;5054993;28;20479;-68
2023/05/03 11:37:52;;;;;;;6.40;5.40;;;18.90;68.20;;;;;;5054140;28;20029;-68
2023/05/03 11:40:18;;;;;;;7.40;5.68;;;18.90;69.40;;;;;;5054515;28;20033;-67
2023/05/03 11:42:55;;;;;;;7.47;5.50;;;18.90;68.80;;;;;;5053515;28;20029;-67
2023/05/03 11:45:23;;;;;;;8.45;5.40;;;18.80;68.90;;;;;;5054620;28;20140;-68
2023/05/03 11:47:49;;;;;;;8.57;5.50;;;18.80;68.80;;;;;;5055020;28;20025;-67
2023/05/03 11:50:16;;;;;;;6.10;5.15;;;18.70;69.70;;;;;;5054267;28;20032;-68
2023/05/03 11:52:41;;;;;;;7.10;5.60;;;18.90;70.90;;;;;;5053728;28;20413;-67
2023/05/03 11:55:09;;;;;;;6.28;4.80;;;19.10;72.80;;;;;;5054398;28;20036;-69
2023/05/03 11:57:36;;;;;;;7.53;5.70;;;19.10;70.70;;;;;;5053350;28;20025;-68
2023/05/03 12:00:13;;;;;;;8.88;5.13;;;19.10;70.20;;;;;;5054784;28;20029;-68
2023/05/03 12:02:40;;;;;;;9.60;5.15;;;19.10;68.70;;;;;;5054563;28;20037;-68
2023/05/03 12:05:06;;;;;;;7.93;5.00;;;19.30;70.40;;;;;;5054251;28;20025;-68
2023/05/03 12:07:32;;;;;;;6.13;5.00;;;19.40;69.30;;;;;;5054622;28;20543;-68
2023/05/03 12:09:58;;;;;;;7.75;5.18;;;19.40;68.40;;;;;;5054553;28;20025;-67
2023/05/03 12:12:24;;;;;;;7.60;5.13;;;19.50;69.40;;;;;;5053860;28;20025;-67
2023/05/03 12:15:00;;;;;;;7.00;4.55;;;19.60;68.40;;;;;;5054373;28;20374;-67
2023/05/03 12:17:39;;;;;;;12.65;4.35;;;19.50;67.90;;;;;;5054143;28;20122;-66
2023/05/03 12:20:21;;;;;;;7.93;5.43;;;19.60;67.80;;;;;;5054462;28;20017;-67
2023/05/03 12:22:51;;;;;;;7.93;5.65;;;19.50;66.70;;;;;;5054187;28;20086;-67
2023/05/03 12:25:18;;;;;;;9.00;5.63;;;19.50;67.00;;;;;;5053770;28;20393;-68
2023/05/03 12:27:44;;;;;;;8.02;5.68;;;19.50;67.00;;;;;;5054159;28;20026;-68
2023/05/03 12:30:10;;;;;;;9.32;6.00;;;19.40;67.20;;;;;;5053794;28;20032;-69
2023/05/03 12:32:39;;;;;;;8.38;5.65;;;19.40;66.50;;;;;;5054235;28;20033;-68
2023/05/03 12:35:07;;;;;;;7.85;5.47;;;19.30;67.20;;;;;;5054024;28;20017;-68
2023/05/03 12:37:33;;;;;;;8.43;5.78;;;19.30;67.90;;;;;;5053684;28;20021;-67
2023/05/03 12:39:59;;;;;;;7.65;5.40;;;19.20;68.20;;;;;;5053820;28;20029;-67
2023/05/03 12:42:25;;;;;;;9.18;5.47;;;19.20;69.00;;;;;;5053212;28;20033;-67